createdAt,value
2022-11-24T06:33:10.145Z,99800.00
2022-11-24T06:38:13.860Z,99794.80
2022-11-24T06:43:17.318Z,99795.00
2022-11-24T06:48:20.783Z,99798.00
2022-11-24T06:53:24.994Z,99787.20
2022-11-24T06:58:28.772Z,99772.40
2022-11-24T07:03:32.339Z,99773.00
2022-11-24T07:08:35.982Z,99767.00
2022-11-24T07:13:39.504Z,99757.20
2022-11-24T07:18:45.067Z,99764.00
2022-11-24T07:23:52.544Z,99771.80
2022-11-24T07:28:56.012Z,99788.60
2022-11-24T07:33:59.610Z,99797.60
2022-11-24T07:39:03.227Z,99795.20
2022-11-24T07:44:06.936Z,99796.20
2022-11-24T07:49:10.284Z,99789.60
2022-11-24T07:54:13.653Z,99789.20
2022-11-24T07:59:17.188Z,99790.20
2022-11-24T08:04:20.532Z,99785.20
2022-11-24T08:09:23.912Z,99779.60
2022-11-24T08:14:27.337Z,99781.60
2022-11-24T08:19:32.482Z,99782.20
2022-11-24T08:24:36.521Z,99802.00
2022-11-24T08:29:40.242Z,99806.40
2022-11-24T08:34:43.639Z,99804.60
2022-11-24T08:39:47.066Z,99808.40
2022-11-24T08:44:58.684Z,99806.40
2022-11-24T08:50:02.695Z,99819.00
2022-11-24T08:55:07.430Z,99809.00
2022-11-24T09:00:12.376Z,99822.20
2022-11-24T09:05:43.697Z,99806.00
2022-11-24T09:10:40.112Z,99818.80
2022-11-24T09:15:43.826Z,99812.00
2022-11-24T09:20:53.280Z,99802.40
2022-11-24T09:26:06.788Z,99800.00
2022-11-24T09:31:14.457Z,99802.00
2022-11-24T09:36:18.545Z,99820.80
2022-11-24T09:41:50.764Z,99822.80
2022-11-24T09:47:10.274Z,99824.00
2022-11-24T09:52:29.850Z,99838.80
2022-11-24T09:57:38.999Z,99839.20
2022-11-24T10:02:44.135Z,99829.20
2022-11-24T10:08:23.143Z,99836.40
2022-11-24T10:13:54.697Z,99827.60
2022-11-24T10:19:16.768Z,99842.60
2022-11-24T10:24:47.477Z,99837.20
2022-11-24T10:29:53.364Z,99850.60
2022-11-24T10:35:14.460Z,99830.80
2022-11-24T10:41:02.460Z,99829.20
2022-11-24T10:46:14.190Z,99833.80
2022-11-24T10:51:48.017Z,99831.60
2022-11-24T10:56:53.864Z,99836.80
2022-11-24T11:01:57.517Z,99826.00
2022-11-24T11:07:19.287Z,99836.00
2022-11-24T11:12:45.754Z,99832.80
2022-11-24T11:17:52.767Z,99831.40
2022-11-24T11:22:59.150Z,99834.80
2022-11-24T11:28:29.147Z,99836.80
2022-11-24T11:39:00.392Z,99847.20
2022-11-24T11:44:55.642Z,99840.60
2022-11-24T11:49:59.539Z,99837.40
2022-11-24T11:55:23.638Z,99851.00
2022-11-24T12:00:28.712Z,99845.00
2022-11-24T12:05:50.944Z,99855.60
2022-11-24T12:11:07.569Z,99859.80
2022-11-24T12:16:42.622Z,99847.60
2022-11-24T12:22:26.322Z,99848.60
2022-11-24T12:28:18.600Z,99843.00
2022-11-24T12:34:02.608Z,99849.80
2022-11-24T12:39:36.358Z,99842.80
2022-11-24T12:45:08.834Z,99845.80
2022-11-24T12:50:23.829Z,99847.40
2022-11-24T12:55:30.468Z,99847.80
2022-11-24T13:00:54.191Z,99840.40
2022-11-24T13:06:07.816Z,99842.00
2022-11-24T13:11:23.556Z,99849.60
2022-11-24T13:19:26.624Z,99851.60
2022-11-24T13:24:39.048Z,99849.00
2022-11-24T13:29:51.359Z,99852.40
2022-11-24T13:35:16.386Z,99857.20
2022-11-24T13:41:12.871Z,99845.00
2022-11-24T13:46:37.994Z,99850.80
2022-11-24T13:51:47.645Z,99850.20
2022-11-24T13:57:36.775Z,99861.00
2022-11-24T14:02:49.357Z,99851.80
2022-11-24T14:07:59.387Z,99865.00
2022-11-24T14:13:31.303Z,99867.20
2022-11-24T14:18:43.677Z,99872.80
2022-11-24T14:23:57.299Z,99875.60
2022-11-24T14:29:20.520Z,99888.20
2022-11-24T14:34:33.684Z,99897.00
2022-11-24T14:39:47.382Z,99896.00
2022-11-24T14:45:01.232Z,99903.20
2022-11-24T14:50:19.866Z,99904.40
2022-11-24T14:55:32.660Z,99901.60
2022-11-24T15:00:42.801Z,99904.60
2022-11-24T15:06:02.517Z,99904.80
2022-11-24T15:11:12.530Z,99908.20
2022-11-24T15:16:26.771Z,99915.40
2022-11-24T15:21:38.878Z,99921.60
2022-11-24T15:26:49.186Z,99917.80
2022-11-24T15:31:59.988Z,99927.20
2022-11-24T15:37:09.554Z,99927.20
2022-11-24T15:42:19.275Z,99928.80
2022-11-24T15:47:28.862Z,99933.60
2022-11-24T15:52:38.951Z,99927.40
2022-11-24T15:57:49.040Z,99921.80
2022-11-24T16:03:02.062Z,99918.60
2022-11-24T16:08:22.792Z,99924.00
2022-11-24T16:13:32.306Z,99918.20
2022-11-24T16:18:42.063Z,99925.80
2022-11-24T16:23:52.087Z,99926.40
2022-11-24T16:29:01.518Z,99925.80
2022-11-24T16:34:11.180Z,99932.80
2022-11-24T16:39:21.016Z,99931.80
2022-11-24T16:44:30.565Z,99943.60
2022-11-24T16:49:40.523Z,99937.80
2022-11-24T16:54:50.243Z,99941.00
2022-11-24T16:59:59.874Z,99943.20
2022-11-24T17:05:11.428Z,99943.40
2022-11-24T17:10:21.318Z,99945.60
2022-11-24T17:15:35.534Z,99950.40
2022-11-24T17:20:47.904Z,99956.60
2022-11-24T17:26:02.069Z,99969.20
2022-11-24T17:31:22.537Z,99970.40
2022-11-24T17:36:34.603Z,99975.00
2022-11-24T17:41:44.215Z,99980.80
2022-11-24T17:46:54.484Z,99986.80
2022-11-24T17:52:04.055Z,99995.80
2022-11-24T17:57:13.879Z,99998.80
2022-11-24T18:02:23.639Z,100005.80
2022-11-24T18:07:33.216Z,100001.40
2022-11-24T18:12:43.044Z,100003.60
2022-11-24T18:17:54.537Z,100002.60
2022-11-24T18:23:06.131Z,100002.60
2022-11-24T18:28:16.413Z,100011.80
2022-11-24T18:33:25.992Z,100015.20
2022-11-24T18:38:38.105Z,100017.20
2022-11-24T18:43:47.982Z,100011.80
2022-11-24T18:48:58.221Z,100019.20
2022-11-24T18:54:08.177Z,100030.20
2022-11-24T18:59:17.767Z,100028.20
2022-11-24T19:04:27.550Z,100029.40
2022-11-24T19:09:38.045Z,100033.80
2022-11-24T19:14:47.502Z,100025.00
2022-11-24T19:19:57.149Z,100021.40
2022-11-24T19:25:11.019Z,100017.80
2022-11-24T19:30:23.118Z,100024.20
2022-11-24T19:35:32.639Z,100023.00
2022-11-24T19:40:42.052Z,100033.40
2022-11-24T19:45:51.525Z,100036.40
2022-11-24T19:51:06.083Z,100040.00
2022-11-24T19:56:18.377Z,100050.60
2022-11-24T20:01:31.241Z,100056.00
2022-11-24T20:06:43.468Z,100055.40
2022-11-24T20:11:52.851Z,100057.00
2022-11-24T20:17:02.422Z,100058.00
2022-11-24T20:22:11.919Z,100057.20
2022-11-24T20:27:21.414Z,100064.80
2022-11-24T20:32:33.539Z,100062.60
2022-11-24T20:43:10.056Z,100077.20
2022-11-24T20:48:19.735Z,100090.00
2022-11-24T20:53:29.578Z,100086.40
2022-11-24T20:58:40.294Z,100084.20
2022-11-24T21:03:55.554Z,100092.20
2022-11-24T21:09:05.662Z,100110.20
2022-11-24T21:14:15.399Z,100109.20
2022-11-24T21:19:25.246Z,100110.20
2022-11-24T21:24:35.001Z,100108.20
2022-11-24T21:29:44.880Z,100107.00
2022-11-24T21:34:54.402Z,100112.60
2022-11-24T21:40:04.020Z,100112.80
2022-11-24T21:45:14.974Z,100118.00
2022-11-24T21:50:24.716Z,100119.20
2022-11-24T21:55:34.428Z,100115.40
2022-11-24T22:00:44.229Z,100104.00
2022-11-24T22:06:00.288Z,100103.20
2022-11-24T22:11:14.089Z,100095.80
2022-11-24T22:16:26.293Z,100100.60
2022-11-24T22:21:36.039Z,100099.20
2022-11-24T22:26:45.564Z,100104.20
2022-11-24T22:31:55.205Z,100114.40
2022-11-24T22:37:04.839Z,100121.80
2022-11-24T22:42:14.291Z,100135.60
2022-11-24T22:47:23.836Z,100124.60
2022-11-24T22:52:34.030Z,100135.80
2022-11-24T22:57:47.971Z,100151.80
2022-11-24T23:02:59.048Z,100151.00
2022-11-24T23:08:09.733Z,100146.80
2022-11-24T23:13:19.393Z,100144.40
2022-11-24T23:18:29.283Z,100150.20
2022-11-24T23:23:39.410Z,100152.40
2022-11-24T23:28:49.206Z,100144.20
2022-11-24T23:33:59.265Z,100142.40
2022-11-24T23:39:13.979Z,100143.60
2022-11-24T23:44:23.798Z,100132.20
2022-11-24T23:49:33.883Z,100125.20
